Time;durP1;ratioP1;P1;durP2;ratioP2;P2;SDS_P1;SDS_P2;PMS_P1;PMS_P2;Temp;Humidity;BMP_temperature;BMP_pressure;BME280_temperature;BME280_humidity;BME280_pressure;Samples;Min_cycle;Max_cycle;Signal;HPM_P1;HPM_P2
2022/10/12 00:01:10;;;;;;;22.50;9.65;;;5.90;99.90;;;5.67;100.00;99776.91;5023151;28;115004;-75
2022/10/12 00:03:40;;;;;;;25.45;9.52;;;5.90;99.90;;;5.69;100.00;99771.25;5023673;28;128735;-75
2022/10/12 00:06:12;;;;;;;22.60;9.13;;;5.90;99.90;;;5.70;100.00;99770.97;5022278;28;130412;-74
2022/10/12 00:08:42;;;;;;;18.98;9.27;;;5.90;99.90;;;5.69;100.00;99777.41;5021548;27;118854;-75
2022/10/12 00:11:14;;;;;;;25.33;8.95;;;5.80;99.90;;;5.63;100.00;99778.50;5022255;27;115082;-75
2022/10/12 00:13:43;;;;;;;22.00;8.60;;;5.80;99.90;;;5.63;100.00;99778.50;5023259;28;129624;-73
2022/10/12 00:16:15;;;;;;;15.32;8.40;;;5.80;99.90;;;5.61;100.00;99780.69;5020624;27;129678;-74
2022/10/12 00:18:46;;;;;;;19.73;8.90;;;5.80;99.90;;;5.64;100.00;99784.69;5023236;28;119554;-74
2022/10/12 00:21:16;;;;;;;19.25;9.18;;;5.80;99.90;;;5.61;100.00;99777.97;5020437;28;115657;-74
2022/10/12 00:23:46;;;;;;;20.98;8.43;;;5.90;99.90;;;5.62;100.00;99781.47;5021385;28;129922;-74
2022/10/12 00:26:18;;;;;;;20.13;8.52;;;5.90;99.90;;;5.59;100.00;99788.19;5023242;28;129090;-73
2022/10/12 00:28:48;;;;;;;20.15;8.35;;;5.90;99.90;;;5.61;100.00;99777.97;5021685;28;118981;-75
2022/10/12 00:31:19;;;;;;;18.65;7.60;;;5.90;99.90;;;5.60;100.00;99784.44;5021803;28;115527;-72
2022/10/12 00:33:50;;;;;;;23.60;8.57;;;5.90;99.90;;;5.57;100.00;99779.59;5020924;28;130304;-73
2022/10/12 00:36:22;;;;;;;15.57;7.90;;;5.80;99.90;;;5.60;100.00;99789.03;5023150;28;128532;-73
2022/10/12 00:38:53;;;;;;;22.48;8.07;;;5.90;99.90;;;5.56;100.00;99797.63;5023323;28;117786;-74
2022/10/12 00:41:25;;;;;;;16.40;7.85;;;5.80;99.90;;;5.55;100.00;99787.13;5020857;28;115085;-74
2022/10/12 00:43:54;;;;;;;16.85;7.43;;;5.70;99.90;;;5.48;100.00;99787.41;5021200;28;130186;-73
2022/10/12 00:46:33;;;;;;;19.67;8.57;;;5.70;99.90;;;5.45;100.00;99792.53;5020188;28;130254;-74
2022/10/12 00:49:10;;;;;;;21.88;9.15;;;5.60;99.90;;;5.39;100.00;99800.59;5020977;28;118800;-75
2022/10/12 00:51:41;;;;;;;19.75;8.57;;;5.50;99.90;;;5.32;100.00;99794.69;5021238;28;115190;-74
2022/10/12 00:54:15;;;;;;;18.08;8.57;;;5.50;99.90;;;5.27;100.00;99805.44;5020667;28;129966;-75
2022/10/12 00:56:47;;;;;;;20.33;8.60;;;5.40;99.90;;;5.22;100.00;99800.88;5020664;28;129569;-73
2022/10/12 00:59:23;;;;;;;19.85;8.90;;;5.30;99.90;;;5.21;100.00;99801.13;5019546;28;119231;-72
2022/10/12 01:01:51;;;;;;;19.52;7.60;;;5.30;99.90;;;5.18;100.00;99798.97;5023445;28;115446;-74
2022/10/12 01:04:23;;;;;;;21.80;7.50;;;5.40;99.90;;;5.25;100.00;99799.53;5020837;28;130450;-75
2022/10/12 01:06:53;;;;;;;20.23;8.10;;;5.60;99.90;;;5.29;100.00;99800.59;5020930;28;130361;-74
2022/10/12 01:09:22;;;;;;;19.05;8.55;;;5.60;99.90;;;5.32;100.00;99796.56;5020998;28;118708;-74
2022/10/12 01:11:51;;;;;;;21.63;7.97;;;5.60;99.90;;;5.32;100.00;99799.25;5021198;28;116158;-75
2022/10/12 01:14:19;;;;;;;22.52;8.95;;;5.60;99.90;;;5.36;100.00;99801.16;5020562;28;130844;-76
2022/10/12 01:16:56;;;;;;;20.75;8.25;;;5.70;99.90;;;5.37;100.00;99802.75;5020396;28;129586;-75
2022/10/12 01:19:51;;;;;;;;;;;5.70;99.90;;;5.37;100.00;99810.81;5021449;28;119086;-74
2022/10/12 01:22:22;;;;;;;17.45;7.65;;;5.70;99.90;;;5.37;100.00;99807.31;5021111;28;114820;-76
2022/10/12 01:24:52;;;;;;;26.67;8.27;;;5.60;99.90;;;5.34;100.00;99800.59;5022362;28;128998;-74
2022/10/12 01:27:42;;;;;;;16.02;7.32;;;5.70;99.90;;;5.33;100.00;99799.00;5020924;28;129450;-74
2022/10/12 01:30:20;;;;;;;20.67;7.05;;;5.60;99.90;;;5.33;100.00;99801.69;5025848;28;118988;-73
2022/10/12 01:33:09;;;;;;;22.88;8.07;;;5.40;99.90;;;5.30;100.00;99802.22;5024271;28;114765;-74
2022/10/12 01:35:48;;;;;;;24.35;8.00;;;5.50;99.90;;;5.30;100.00;99804.09;5025605;28;128960;-74
2022/10/12 01:38:29;;;;;;;18.08;7.43;;;5.50;99.90;;;5.28;100.00;99809.72;5023648;28;129495;-74
2022/10/12 01:41:05;;;;;;;19.08;8.07;;;5.40;99.90;;;5.28;100.00;99803.56;5024182;28;118787;-75
2022/10/12 01:43:39;;;;;;;20.98;8.25;;;5.40;99.90;;;5.28;100.00;99803.56;5023939;28;114587;-74
2022/10/12 01:46:42;;;;;;;25.65;9.50;;;5.40;99.90;;;5.23;100.00;99807.06;5023988;28;131518;-73
2022/10/12 01:49:12;;;;;;;20.55;8.23;;;5.40;99.90;;;5.24;100.00;99803.28;5023442;28;130128;-73
2022/10/12 01:52:04;;;;;;;19.30;8.13;;;5.30;99.90;;;5.17;100.00;99803.56;5023881;28;119282;-72
2022/10/12 01:54:51;;;;;;;18.60;8.20;;;5.20;99.90;;;5.15;100.00;99810.28;5024213;28;115044;-73
2022/10/12 01:57:28;;;;;;;18.30;7.53;;;5.30;99.90;;;5.15;100.00;99810.28;5025036;28;130367;-72
2022/10/12 02:00:05;;;;;;;16.83;8.13;;;5.30;99.90;;;5.14;100.00;99808.66;5025413;28;128166;-77
2022/10/12 02:02:48;;;;;;;18.10;7.88;;;5.20;99.90;;;5.11;100.00;99814.56;5023400;28;118827;-74
2022/10/12 02:05:33;;;;;;;22.33;7.30;;;5.20;99.90;;;5.08;100.00;99810.56;5025891;28;115091;-74
2022/10/12 02:08:09;;;;;;;21.17;7.95;;;5.20;99.90;;;5.07;100.00;99810.81;5023304;28;129811;-75
2022/10/12 02:10:44;;;;;;;20.63;8.60;;;5.20;99.90;;;5.06;100.00;99807.31;5026424;28;128805;-75
2022/10/12 02:13:15;;;;;;;23.67;7.60;;;5.20;99.90;;;5.09;100.00;99816.72;5032459;28;118722;-77
2022/10/12 02:15:44;;;;;;;20.48;8.30;;;5.20;99.90;;;5.09;100.00;99814.03;5026773;28;114796;-73
2022/10/12 02:18:19;;;;;;;18.42;8.40;;;5.20;99.90;;;5.10;100.00;99823.72;5025015;28;129063;-75
2022/10/12 02:20:51;;;;;;;25.50;7.80;;;5.30;99.90;;;5.14;100.00;99817.56;5023518;28;129378;-74
2022/10/12 02:23:23;;;;;;;24.20;8.55;;;5.40;99.90;;;5.13;100.00;99823.19;5025434;28;117771;-75
2022/10/12 02:25:53;;;;;;;20.38;8.68;;;5.40;99.90;;;5.18;100.00;99820.50;5023673;28;115012;-75
2022/10/12 02:28:26;;;;;;;16.33;8.20;;;5.40;99.90;;;5.17;100.00;99824.25;5023012;28;130730;-74
2022/10/12 02:31:02;;;;;;;18.77;8.25;;;5.40;99.90;;;5.17;100.00;99819.72;5008083;28;129047;-74
2022/10/12 02:33:38;;;;;;;18.25;8.23;;;5.50;99.90;;;5.15;100.00;99827.22;5023250;28;118845;-74
2022/10/12 02:36:14;;;;;;;21.77;8.00;;;5.30;99.90;;;5.13;100.00;99824.00;5025185;28;114488;-74
2022/10/12 02:38:49;;;;;;;21.02;7.90;;;5.40;99.90;;;5.13;100.00;99833.97;5023120;28;130957;-74
2022/10/12 02:41:26;;;;;;;21.92;8.38;;;5.40;99.90;;;5.13;100.00;99825.91;5024510;28;128809;-73
2022/10/12 02:43:59;;;;;;;19.60;8.15;;;5.40;99.90;;;5.10;100.00;99826.44;5008553;28;117897;-73
2022/10/12 02:46:30;;;;;;;20.02;8.55;;;5.50;99.90;;;5.14;100.00;99824.78;5024412;28;115139;-75
2022/10/12 02:49:03;;;;;;;25.85;8.68;;;5.40;99.90;;;5.13;100.00;99821.31;5022916;28;129934;-74
2022/10/12 02:51:34;;;;;;;19.70;7.75;;;5.30;99.90;;;5.08;100.00;99831.25;5022985;28;129662;-75
2022/10/12 02:54:03;;;;;;;23.60;8.10;;;5.20;99.90;;;5.08;100.00;99832.06;5023000;28;118975;-74
2022/10/12 02:56:32;;;;;;;17.88;7.40;;;5.30;99.90;;;5.09;100.00;99830.19;5026466;28;115594;-74
2022/10/12 02:59:01;;;;;;;19.10;7.88;;;5.30;99.90;;;5.07;100.00;99827.75;5023789;28;129804;-74
2022/10/12 03:01:29;;;;;;;20.42;8.32;;;5.30;99.90;;;5.04;100.00;99837.16;5025211;28;129403;-75
2022/10/12 03:03:58;;;;;;;24.48;8.63;;;5.20;99.90;;;5.04;100.00;99834.47;5026199;28;119405;-75
2022/10/12 03:06:27;;;;;;;18.60;8.55;;;5.30;99.90;;;5.06;100.00;99833.41;5025797;28;115800;-73
2022/10/12 03:08:56;;;;;;;19.15;8.40;;;5.30;99.90;;;5.03;100.00;99835.56;5026218;28;129170;-74
2022/10/12 03:11:25;;;;;;;18.25;8.45;;;5.30;99.90;;;5.00;100.00;99838.78;5024876;28;130048;-74
2022/10/12 03:13:54;;;;;;;24.20;8.85;;;5.20;99.90;;;5.00;100.00;99836.09;5026740;28;118750;-75
2022/10/12 03:16:23;;;;;;;20.45;9.25;;;5.20;99.90;;;4.92;100.00;99844.66;5029242;28;115821;-75
2022/10/12 03:18:52;;;;;;;21.67;9.05;;;5.00;99.90;;;4.82;100.00;99839.28;5032182;28;132047;-75
2022/10/12 03:21:21;;;;;;;22.70;9.38;;;4.90;99.90;;;4.77;100.00;99842.75;5035942;28;129604;-75
2022/10/12 03:23:51;;;;;;;18.73;8.30;;;4.80;99.90;;;4.78;100.00;99838.16;5025060;28;118827;-73
2022/10/12 03:26:19;;;;;;;20.83;8.23;;;4.90;99.90;;;4.79;100.00;99845.19;5021692;28;115368;-77
2022/10/12 03:28:47;;;;;;;21.15;8.25;;;4.80;99.90;;;4.80;100.00;99841.41;5021816;28;129884;-74
2022/10/12 03:31:16;;;;;;;23.27;8.95;;;4.90;99.90;;;4.81;100.00;99837.66;5022095;27;129260;-75
2022/10/12 03:33:45;;;;;;;23.75;9.00;;;5.00;99.90;;;4.81;100.00;99843.03;5041099;27;119722;-73
2022/10/12 03:36:14;;;;;;;23.83;8.75;;;4.90;99.90;;;4.80;100.00;99841.41;5044630;27;114362;-73
2022/10/12 03:38:43;;;;;;;28.50;8.90;;;4.90;99.90;;;4.79;100.00;99850.56;5040893;27;129576;-74
2022/10/12 03:41:13;;;;;;;24.33;8.88;;;4.90;99.90;;;4.77;100.00;99848.13;5028815;27;130005;-76
2022/10/12 03:43:41;;;;;;;19.15;8.55;;;4.90;99.90;;;4.77;100.00;99852.69;5023920;28;119057;-75
2022/10/12 03:46:10;;;;;;;21.02;9.18;;;4.80;99.90;;;4.77;100.00;99847.31;5029720;28;115839;-75
2022/10/12 03:48:38;;;;;;;23.67;8.25;;;4.80;99.90;;;4.77;100.00;99847.31;5026668;28;129750;-76
2022/10/12 03:51:07;;;;;;;21.20;8.80;;;4.80;99.90;;;4.79;100.00;99856.72;5024742;27;128402;-78
2022/10/12 03:53:36;;;;;;;26.67;9.40;;;4.90;99.90;;;4.77;100.00;99848.13;5022418;28;118309;-76
2022/10/12 03:56:05;;;;;;;23.02;8.65;;;4.90;99.90;;;4.75;100.00;99849.47;5022497;28;115101;-74
2022/10/12 03:58:36;;;;;;;27.38;10.32;;;4.90;99.90;;;4.75;100.00;99861.00;5023461;28;129090;-73
2022/10/12 04:01:05;;;;;;;23.67;10.05;;;4.90;99.90;;;4.74;100.00;99855.94;5022945;28;129155;-76
2022/10/12 04:03:33;;;;;;;24.40;10.40;;;4.90;99.90;;;4.71;100.00;99849.19;5019896;28;118967;-75
2022/10/12 04:06:02;;;;;;;18.88;8.60;;;4.90;99.90;;;4.67;100.00;99854.28;5026683;27;116354;-75
2022/10/12 04:08:31;;;;;;;22.95;9.85;;;4.90;99.90;;;4.70;100.00;99852.13;5021383;27;129884;-75
2022/10/12 04:10:59;;;;;;;24.48;9.40;;;4.90;99.90;;;4.75;100.00;99860.22;5021367;28;129297;-74
2022/10/12 04:13:27;;;;;;;22.83;9.52;;;4.90;99.90;;;4.79;100.00;99864.00;5021923;28;119745;-75
2022/10/12 04:16:03;;;;;;;28.98;9.95;;;4.90;99.90;;;4.84;100.00;99872.06;5021075;28;115063;-75
2022/10/12 04:18:31;;;;;;;23.42;8.77;;;4.90;99.90;;;4.86;100.00;99868.06;5023607;28;130076;-77
2022/10/12 04:21:00;;;;;;;20.25;8.63;;;5.00;99.90;;;4.90;100.00;99862.94;5026367;28;128528;-75
2022/10/12 04:23:29;;;;;;;24.63;9.30;;;5.00;99.90;;;4.97;100.00;99863.53;5025573;28;118289;-78
2022/10/12 04:25:57;;;;;;;22.65;9.88;;;5.10;99.90;;;5.01;100.00;99869.16;5022236;27;115141;-74
2022/10/12 04:28:26;;;;;;;22.45;9.63;;;5.10;99.90;;;5.01;100.00;99869.97;5031844;27;129320;-75
2022/10/12 04:30:56;;;;;;;25.75;9.65;;;5.10;99.90;;;5.08;100.00;99868.91;5043386;27;129618;-76
2022/10/12 04:33:24;;;;;;;25.88;9.65;;;5.10;99.90;;;5.15;100.00;99874.84;5051190;27;118879;-74
2022/10/12 04:35:53;;;;;;;21.70;9.20;;;5.20;99.90;;;5.21;100.00;99871.09;5040460;27;115073;-75
2022/10/12 04:38:22;;;;;;;26.02;9.90;;;5.20;99.90;;;5.26;100.00;99876.47;5046282;27;131567;-77
2022/10/12 04:40:50;;;;;;;23.08;10.20;;;5.30;99.90;;;5.34;100.00;99873.25;5048845;27;129640;-72
2022/10/12 04:43:19;;;;;;;20.95;9.02;;;5.30;99.90;;;5.38;100.00;99885.13;5042250;27;119018;-74
2022/10/12 04:45:57;;;;;;;22.55;9.95;;;5.30;99.90;;;5.40;100.00;99891.03;5044179;27;115009;-74
2022/10/12 04:48:26;;;;;;;19.25;9.27;;;5.40;99.90;;;5.43;100.00;99878.94;5046210;27;128829;-75
2022/10/12 04:50:55;;;;;;;32.42;10.07;;;5.40;99.90;;;5.46;100.00;99880.28;5043425;27;127816;-73
2022/10/12 04:53:24;;;;;;;25.02;10.30;;;5.40;99.90;;;5.49;100.00;99879.75;5041269;27;119381;-74
2022/10/12 04:55:52;;;;;;;35.00;10.57;;;5.40;99.90;;;5.61;100.00;99896.44;5041364;27;116094;-74
2022/10/12 04:58:21;;;;;;;25.23;10.32;;;5.50;99.90;;;5.67;100.00;99894.56;5040485;27;130178;-76
2022/10/12 05:00:49;;;;;;;24.33;10.55;;;5.50;99.90;;;5.69;100.00;99897.81;5043022;27;128528;-75
2022/10/12 05:03:19;;;;;;;24.55;10.10;;;5.50;99.90;;;5.72;100.00;99905.34;5042701;27;118758;-74
2022/10/12 05:05:48;;;;;;;29.10;9.73;;;5.60;99.90;;;5.75;100.00;99911.00;5045386;27;115784;-74
2022/10/12 05:08:17;;;;;;;21.52;9.20;;;5.60;99.90;;;5.79;100.00;99908.56;5046634;27;129011;-75
2022/10/12 05:10:46;;;;;;;18.70;8.75;;;5.60;99.90;;;5.81;100.00;99910.97;5043140;27;129847;-73
2022/10/12 05:13:15;;;;;;;21.73;8.98;;;5.60;99.90;;;5.84;100.00;99913.13;5046948;27;118178;-73
2022/10/12 05:15:44;;;;;;;26.90;9.68;;;5.70;99.90;;;5.88;100.00;99919.63;5046094;27;115053;-74
2022/10/12 05:18:13;;;;;;;19.45;9.52;;;5.70;99.90;;;5.83;100.00;99912.34;5044396;27;129747;-74
2022/10/12 05:20:44;;;;;;;25.48;8.77;;;5.70;99.90;;;5.90;100.00;99914.75;5044450;27;129881;-74
2022/10/12 05:23:12;;;;;;;20.38;9.57;;;5.70;99.90;;;5.92;100.00;99915.28;5045231;27;119083;-73
2022/10/12 05:25:41;;;;;;;22.63;9.18;;;5.70;99.90;;;5.97;100.00;99917.19;5045043;27;115951;-74
2022/10/12 05:28:10;;;;;;;18.00;9.15;;;5.60;99.90;;;6.03;100.00;99914.25;5044583;27;130790;-74
2022/10/12 05:30:39;;;;;;;23.40;9.25;;;5.70;99.90;;;6.10;100.00;99917.47;5044937;27;129898;-75
2022/10/12 05:33:08;;;;;;;20.05;8.88;;;5.80;99.90;;;6.16;100.00;99925.56;5044926;27;118703;-74
2022/10/12 05:35:36;;;;;;;23.70;8.43;;;5.80;99.90;;;6.18;100.00;99928.78;5047315;27;115600;-74
2022/10/12 05:38:07;;;;;;;15.48;7.88;;;5.80;99.90;;;6.18;100.00;99912.63;5044305;27;129960;-74
2022/10/12 05:40:35;;;;;;;15.88;6.88;;;5.80;99.90;;;6.21;100.00;99928.25;5045239;27;129575;-73
2022/10/12 05:43:03;;;;;;;24.55;7.90;;;5.80;99.90;;;6.30;100.00;99927.41;5030214;27;117876;-75
2022/10/12 05:45:32;;;;;;;19.20;7.78;;;5.90;99.90;;;6.39;100.00;99924.97;5044832;27;115121;-73
2022/10/12 05:48:00;;;;;;;14.18;7.40;;;5.90;99.90;;;6.48;100.00;99928.72;5047301;27;129479;-73
2022/10/12 05:50:29;;;;;;;14.05;7.22;;;6.00;99.90;;;6.61;100.00;99937.31;5047084;27;129292;-74
2022/10/12 05:52:58;;;;;;;15.43;6.97;;;6.10;99.90;;;6.65;100.00;99941.06;5050584;27;118989;-73
2022/10/12 05:55:27;;;;;;;13.85;6.13;;;6.10;99.90;;;6.68;100.00;99948.63;5047446;27;115101;-70
2022/10/12 05:57:56;;;;;;;15.80;6.70;;;6.00;99.90;;;6.71;100.00;99939.97;5046443;27;129762;-73
2022/10/12 06:00:25;;;;;;;13.88;6.38;;;6.10;99.90;;;6.65;100.00;99941.06;5045310;27;129196;-74
2022/10/12 06:02:53;;;;;;;12.70;6.13;;;6.00;99.90;;;6.68;100.00;99940.53;5044504;27;118872;-74
2022/10/12 06:05:23;;;;;;;16.30;6.60;;;6.10;99.90;;;6.76;100.00;99950.78;5045985;27;115625;-76
2022/10/12 06:07:52;;;;;;;13.68;6.45;;;6.20;99.90;;;6.79;100.00;99942.13;5044051;27;130318;-74
2022/10/12 06:10:20;;;;;;;15.30;5.90;;;6.10;99.90;;;6.94;100.00;99952.03;5043689;27;129351;-74
2022/10/12 06:12:50;;;;;;;14.05;6.57;;;6.30;99.90;;;7.05;100.00;99952.00;5044254;27;118655;-75
2022/10/12 06:15:19;;;;;;;12.30;5.82;;;6.40;99.90;;;6.98;100.00;99954.97;5044014;27;116537;-74
2022/10/12 06:17:47;;;;;;;13.73;6.10;;;6.30;99.90;;;7.03;100.00;99949.59;5043874;27;130444;-74
2022/10/12 06:20:16;;;;;;;18.08;6.47;;;6.30;99.90;;;7.05;100.00;99952.81;5045270;27;128788;-73
2022/10/12 06:22:44;;;;;;;17.52;6.32;;;6.30;99.90;;;7.13;100.00;99954.91;5043957;27;118769;-74
2022/10/12 06:25:13;;;;;;;14.23;6.32;;;6.20;99.90;;;7.28;100.00;99958.66;5045931;27;114464;-73
2022/10/12 06:27:44;;;;;;;15.60;5.63;;;6.50;99.90;;;7.40;100.00;99959.09;5045359;27;129325;-75
2022/10/12 06:30:14;;;;;;;13.38;5.80;;;6.50;99.90;;;7.54;100.00;99959.28;5045261;27;130106;-74
2022/10/12 06:32:43;;;;;;;12.45;5.20;;;6.40;99.90;;;7.55;100.00;99961.72;5045730;27;118220;-73
2022/10/12 06:35:12;;;;;;;11.30;5.38;;;6.40;99.90;;;7.59;100.00;99955.75;5043696;27;114957;-74
2022/10/12 06:37:40;;;;;;;13.68;5.78;;;6.30;99.90;;;7.46;100.00;99957.97;5043005;27;130343;-74
2022/10/12 06:40:11;;;;;;;17.60;5.72;;;6.40;99.90;;;7.65;100.00;99963.56;5043087;27;129464;-74
2022/10/12 06:42:39;;;;;;;12.68;5.47;;;6.30;99.90;;;7.64;100.00;99963.84;5045560;27;117812;-74
2022/10/12 06:45:09;;;;;;;9.23;5.63;;;6.40;99.90;;;7.75;100.00;99959.97;5046570;27;117799;-73
2022/10/12 06:47:39;;;;;;;13.98;5.50;;;6.60;99.90;;;7.80;100.00;99962.63;5024214;28;129607;-72
2022/10/12 06:50:09;;;;;;;16.33;5.97;;;6.80;99.90;;;7.83;100.00;99956.66;5022888;28;129457;-74
2022/10/12 06:52:39;;;;;;;11.55;4.72;;;6.70;99.90;;;8.10;100.00;99960.78;5026040;28;119194;-73
2022/10/12 06:55:09;;;;;;;13.27;5.07;;;7.10;99.90;;;8.22;100.00;99966.59;5023534;28;115200;-73
2022/10/12 06:57:38;;;;;;;15.88;5.78;;;6.80;99.90;;;8.27;100.00;99972.00;5022593;28;130019;-72
2022/10/12 07:00:09;;;;;;;11.13;4.75;;;7.00;99.90;;;8.40;100.00;99972.41;5022507;28;129123;-72
2022/10/12 07:02:39;;;;;;;14.05;5.57;;;7.10;99.90;;;8.27;100.00;99969.28;5022761;28;119568;-74
2022/10/12 07:05:08;;;;;;;14.98;5.43;;;6.70;99.90;;;8.51;100.00;99963.13;5022916;28;116226;-76
2022/10/12 07:07:38;;;;;;;14.52;5.10;;;7.20;99.90;;;8.58;100.00;99968.19;5022333;28;129860;-72
2022/10/12 07:10:07;;;;;;;10.50;4.70;;;7.40;99.90;;;8.66;100.00;99956.75;5022366;28;129558;-73
2022/10/12 07:12:36;;;;;;;8.95;4.20;;;7.40;99.90;;;8.69;100.00;99960.78;5022672;28;119278;-73
2022/10/12 07:15:07;;;;;;;13.18;4.53;;;7.10;99.90;;;8.63;100.00;99968.13;5022577;28;114921;-72
2022/10/12 07:17:36;;;;;;;12.23;4.55;;;7.10;99.90;;;8.49;100.00;99962.59;5022595;28;129732;-73
2022/10/12 07:20:07;;;;;;;12.70;4.65;;;7.10;99.90;;;8.46;100.00;99965.88;5022184;28;130188;-75
2022/10/12 07:22:35;;;;;;;10.90;4.97;;;7.10;99.90;;;8.49;100.00;99973.41;5025042;28;117915;-74
2022/10/12 07:25:05;;;;;;;9.05;4.38;;;7.30;99.90;;;8.86;100.00;99971.94;5023014;28;115545;-73
2022/10/12 07:27:34;;;;;;;8.70;4.30;;;7.60;99.90;;;8.96;100.00;99963.72;5020610;27;130560;-73
2022/10/12 07:30:02;;;;;;;8.45;4.20;;;7.80;99.90;;;9.00;100.00;99962.03;5021322;28;130089;-75
2022/10/12 07:32:31;;;;;;;12.00;3.63;;;7.70;99.90;;;8.95;100.00;99964.81;5034034;27;118500;-74
2022/10/12 07:35:00;;;;;;;14.02;4.47;;;7.70;99.90;;;8.97;100.00;99962.59;5042565;27;115183;-74
2022/10/12 07:37:30;;;;;;;8.13;3.75;;;7.30;99.90;;;8.97;100.00;99957.19;5042438;27;129856;-74
2022/10/12 07:39:58;;;;;;;9.60;4.10;;;7.40;99.90;;;8.99;100.00;99963.16;5043990;27;128540;-73
2022/10/12 07:42:27;;;;;;;10.68;4.03;;;7.50;99.90;;;9.01;100.00;99962.84;5042168;27;118809;-75
2022/10/12 07:44:55;;;;;;;10.90;4.25;;;7.80;99.90;;;9.21;100.00;99969.91;5042762;27;113928;-74
2022/10/12 07:47:23;;;;;;;9.07;3.63;;;8.20;99.90;;;9.43;100.00;99963.94;5043832;27;129997;-75
2022/10/12 07:49:52;;;;;;;14.18;3.80;;;8.30;99.90;;;9.62;100.00;99960.41;5041958;27;129760;-75
2022/10/12 07:52:20;;;;;;;10.10;3.65;;;8.30;99.90;;;9.67;100.00;99958.41;5042066;27;119694;-74
2022/10/12 07:54:50;;;;;;;9.35;3.67;;;8.10;99.90;;;9.72;100.00;99965.66;5039455;27;115913;-75
2022/10/12 07:57:19;;;;;;;12.65;3.67;;;8.40;93.80;;;9.83;98.93;99961.72;5021298;28;130379;-75
2022/10/12 07:59:48;;;;;;;9.57;3.95;;;8.30;92.50;;;9.92;99.20;99952.91;5006615;28;128630;-75
2022/10/12 08:02:16;;;;;;;9.23;3.85;;;8.60;89.20;;;10.00;98.28;99955.78;5021573;28;119547;-75
2022/10/12 08:04:45;;;;;;;8.63;3.40;;;8.70;86.80;;;10.04;96.98;99954.06;5021961;28;115295;-73
2022/10/12 08:07:14;;;;;;;9.48;3.60;;;8.60;71.50;;;10.22;97.21;99962.44;5021288;28;130385;-73
2022/10/12 08:09:42;;;;;;;8.05;3.63;;;8.80;72.90;;;10.34;95.59;99965.50;5023792;28;128616;-74
2022/10/12 08:12:12;;;;;;;11.65;3.90;;;9.00;46.10;;;10.35;94.65;99967.13;5021411;28;119098;-75
2022/10/12 08:14:42;;;;;;;8.90;3.10;;;9.00;49.90;;;10.36;94.35;99963.31;5021388;28;114797;-73
2022/10/12 08:17:10;;;;;;;9.45;2.95;;;9.10;28.90;;;10.58;94.41;99959.94;5039612;27;129981;-75
2022/10/12 08:19:39;;;;;;;6.63;3.22;;;9.30;24.40;;;10.66;94.43;99963.88;5041143;27;129795;-75
2022/10/12 08:22:10;;;;;;;9.32;3.10;;;9.60;23.90;;;10.92;90.92;99964.19;5041487;27;118925;-74
2022/10/12 08:24:39;;;;;;;13.85;3.60;;;9.60;1.00;;;10.96;90.69;99961.66;5041400;27;115485;-73
2022/10/12 08:27:08;;;;;;;8.02;2.60;;;9.60;9.50;;;10.79;90.54;99968.47;5041655;27;130381;-73
2022/10/12 08:29:39;;;;;;;11.00;3.00;;;9.60;1.00;;;10.89;89.72;99959.34;5041198;27;130291;-75
2022/10/12 08:32:08;;;;;;;5.65;2.65;;;9.70;1.00;;;11.08;89.61;99966.56;5041516;27;119255;-76
2022/10/12 08:34:36;;;;;;;5.72;2.58;;;10.00;1.00;;;11.13;86.58;99961.84;5043675;27;114753;-74
2022/10/12 08:37:05;;;;;;;10.98;2.50;;;9.70;1.00;;;11.00;86.42;99970.81;5042538;27;129906;-72
2022/10/12 08:39:33;;;;;;;7.35;2.92;;;9.60;1.00;;;10.96;86.87;99967.09;5042280;27;128771;-74
2022/10/12 08:42:17;;;;;;;9.75;2.58;;;9.50;1.00;;;11.01;86.73;99966.97;5042640;27;119561;-75
2022/10/12 08:45:09;;;;;;;7.47;2.72;;;9.70;1.00;;;11.00;87.42;99965.38;5033078;27;115831;-75
2022/10/12 08:47:42;;;;;;;10.75;2.65;;;9.90;1.00;;;11.35;86.44;99971.16;5005537;28;129767;-76
2022/10/12 08:50:18;;;;;;;6.38;2.25;;;10.30;1.00;;;11.43;84.44;99975.88;5003725;28;103012;-73
2022/10/12 08:52:54;;;;;;;10.20;2.80;;;10.30;1.00;;;11.43;83.41;99970.44;5003014;28;117988;-73
2022/10/12 08:55:32;;;;;;;;;;;10.10;1.00;;;11.41;83.35;99969.94;5001941;28;114986;-75
2022/10/12 08:58:01;;;;;;;12.63;2.45;;;10.20;1.00;;;11.57;83.12;99973.13;5000248;28;130038;-74
2022/10/12 09:00:34;;;;;;;10.32;2.85;;;10.40;1.00;;;11.68;82.87;99979.13;4999857;28;130031;-75
2022/10/12 09:03:15;;;;;;;8.70;2.78;;;10.50;1.00;;;11.58;82.81;99984.81;5000234;28;118987;-74
2022/10/12 09:05:51;;;;;;;8.02;2.05;;;10.40;1.00;;;11.66;80.88;99982.16;5000438;28;115079;-73
2022/10/12 09:08:31;;;;;;;12.55;3.13;;;10.00;1.00;;;11.60;82.31;99983.38;5003589;28;130170;-74
2022/10/12 09:11:16;;;;;;;8.85;2.58;;;10.30;1.00;;;11.77;81.89;99988.16;4999938;28;129690;-75
2022/10/12 09:13:56;;;;;;;5.55;2.53;;;10.50;1.00;;;11.73;81.14;99989.09;5001120;28;118844;-75
2022/10/12 09:16:31;;;;;;;7.80;2.33;;;10.70;1.00;;;12.11;80.20;99986.84;5001287;28;115240;-74
2022/10/12 09:19:07;;;;;;;9.10;2.78;;;11.00;1.00;;;12.26;79.02;99990.31;4999477;28;130772;-76
2022/10/12 09:21:36;;;;;;;9.43;2.35;;;11.00;1.00;;;12.34;78.43;99984.91;5003148;28;129553;-74
2022/10/12 09:24:12;;;;;;;10.05;2.97;;;10.80;1.00;;;12.43;77.77;99998.56;5020903;28;118415;-74
2022/10/12 09:26:41;;;;;;;12.20;2.75;;;11.00;1.00;;;12.55;78.09;99985.19;5021168;28;115735;-75
2022/10/12 09:29:24;;;;;;;13.32;3.45;;;11.10;1.00;;;12.50;76.40;100009.81;5020569;28;130547;-73
2022/10/12 09:32:35;;;;;;;8.68;2.55;;;10.70;1.00;;;12.28;77.72;99990.78;5020686;28;129760;-74
2022/10/12 09:35:06;;;;;;;8.63;2.60;;;10.80;1.00;;;12.36;79.54;99990.84;5014442;28;118804;-74
2022/10/12 09:37:36;;;;;;;9.57;3.38;;;11.10;1.00;;;12.48;78.03;99984.84;5022579;28;115731;-74
2022/10/12 09:40:06;;;;;;;8.98;2.92;;;10.90;1.00;;;12.66;77.56;99987.66;5018712;28;130422;-72
2022/10/12 09:42:35;;;;;;;10.13;3.03;;;11.20;1.00;;;12.82;79.21;99983.38;5020014;28;129813;-74
2022/10/12 09:45:17;;;;;;;13.23;3.05;;;11.60;1.00;;;12.85;79.02;99982.75;5006155;28;117866;-75
2022/10/12 09:48:18;;;;;;;10.38;2.70;;;11.80;1.00;;;13.09;77.33;99982.34;5023027;28;115153;-74
2022/10/12 09:50:53;;;;;;;9.73;2.63;;;11.90;1.00;;;12.93;75.61;99984.72;5022503;28;129561;-73
2022/10/12 09:53:32;;;;;;;9.30;3.30;;;11.20;1.00;;;12.78;76.96;99982.41;5023961;28;130075;-75
2022/10/12 09:56:08;;;;;;;9.07;2.80;;;11.10;1.00;;;12.58;76.77;99990.00;5004277;28;118914;-73
2022/10/12 09:58:49;;;;;;;10.18;2.90;;;10.80;1.00;;;12.43;78.45;99997.78;5006835;28;113736;-73
2022/10/12 10:01:23;;;;;;;9.23;3.08;;;10.80;1.00;;;12.48;78.79;99979.41;5003351;28;130736;-75
2022/10/12 10:04:14;;;;;;;12.23;3.15;;;10.80;1.00;;;12.34;79.00;99989.53;5003992;28;129664;-75
2022/10/12 10:06:46;;;;;;;12.38;3.35;;;10.80;1.00;;;12.38;79.80;99990.53;5004074;28;119170;-75
2022/10/12 10:09:34;;;;;;;11.02;3.33;;;11.10;1.00;;;12.62;80.25;99981.22;5003849;28;115549;-76
2022/10/12 10:12:20;;;;;;;9.13;3.35;;;11.60;1.00;;;12.82;79.17;99982.56;5003369;28;131371;-74
2022/10/12 10:14:49;;;;;;;11.75;3.53;;;11.90;1.00;;;13.31;75.89;99984.16;5003360;28;129977;-77
2022/10/12 10:17:25;;;;;;;9.32;3.20;;;11.80;1.00;;;13.48;75.41;99979.91;5003724;28;119460;-73
2022/10/12 10:19:57;;;;;;;10.85;2.53;;;11.90;1.00;;;13.62;73.51;99983.28;5004262;28;115377;-73
2022/10/12 10:22:26;;;;;;;8.45;2.55;;;11.80;1.00;;;13.59;74.16;99978.47;5003587;28;130416;-74
2022/10/12 10:24:57;;;;;;;9.73;3.03;;;12.10;1.00;;;13.70;72.57;99989.03;5003370;28;129872;-76
2022/10/12 10:27:36;;;;;;;10.18;2.75;;;12.00;1.00;;;13.65;71.50;99982.63;5018833;28;118554;-75
2022/10/12 10:30:28;;;;;;;11.38;2.80;;;11.90;1.00;;;13.47;72.73;99981.00;5003325;28;116604;-72
2022/10/12 10:33:16;;;;;;;14.43;3.80;;;12.00;1.00;;;13.41;73.21;99976.84;4986091;28;129910;-74
2022/10/12 10:36:04;;;;;;;9.27;2.97;;;11.80;1.00;;;13.70;72.54;99978.94;5005211;28;129937;-73